createdAt,value
2019-05-01T00:00:56.298Z,85.64
2019-05-01T00:03:25.775Z,85.49
2019-05-01T00:05:58.420Z,85.64
2019-05-01T00:08:26.081Z,85.49
2019-05-01T00:10:52.992Z,85.67
2019-05-01T00:13:20.122Z,85.40
2019-05-01T00:15:47.330Z,84.97
2019-05-01T00:18:16.524Z,85.01
2019-05-01T00:20:43.464Z,84.69
2019-05-01T00:23:10.565Z,84.56
2019-05-01T00:25:37.724Z,84.96
2019-05-01T00:28:05.578Z,85.00
2019-05-01T00:30:33.471Z,85.04
2019-05-01T00:33:00.382Z,85.47
2019-05-01T00:35:27.628Z,85.49
2019-05-01T00:37:54.626Z,85.88
2019-05-01T00:40:21.455Z,86.43
2019-05-01T00:42:48.659Z,86.56
2019-05-01T00:45:16.020Z,86.43
2019-05-01T00:47:43.019Z,86.54
2019-05-01T00:50:10.458Z,86.64
2019-05-01T00:52:37.580Z,86.59
2019-05-01T00:55:08.626Z,86.56
2019-05-01T00:57:37.759Z,86.17
2019-05-01T01:00:23.788Z,86.05
2019-05-01T01:02:53.652Z,85.81
2019-05-01T01:05:20.914Z,86.00
2019-05-01T01:07:48.315Z,85.75
2019-05-01T01:10:15.530Z,85.56
2019-05-01T01:12:42.852Z,85.86
2019-05-01T01:15:10.282Z,85.74
2019-05-01T01:17:37.378Z,86.03
2019-05-01T01:20:04.814Z,85.79
2019-05-01T01:22:32.210Z,85.77
2019-05-01T01:25:00.279Z,86.10
2019-05-01T01:27:27.686Z,85.79
2019-05-01T01:29:55.025Z,85.84
2019-05-01T01:32:22.335Z,85.96
2019-05-01T01:34:49.470Z,85.98
2019-05-01T01:37:16.667Z,86.23
2019-05-01T01:39:44.267Z,85.71
2019-05-01T01:42:13.336Z,86.02
2019-05-01T01:44:51.319Z,85.75
2019-05-01T01:47:18.459Z,85.05
2019-05-01T01:49:45.819Z,85.44
2019-05-01T01:52:13.809Z,85.60
2019-05-01T01:54:40.998Z,85.91
2019-05-01T01:57:09.045Z,85.81
2019-05-01T01:59:36.847Z,86.17
2019-05-01T02:02:12.755Z,86.30
2019-05-01T02:04:41.969Z,86.21
2019-05-01T02:07:09.310Z,86.88
2019-05-01T02:09:36.865Z,86.66
2019-05-01T02:12:04.483Z,86.87
2019-05-01T02:14:31.861Z,86.82
2019-05-01T02:16:58.866Z,86.91
2019-05-01T02:19:26.182Z,86.75
2019-05-01T02:21:53.304Z,86.35
2019-05-01T02:24:20.586Z,86.54
2019-05-01T02:26:52.183Z,86.31
2019-05-01T02:29:37.049Z,86.52
2019-05-01T02:32:04.569Z,86.53
2019-05-01T02:34:32.572Z,86.19
2019-05-01T02:37:02.447Z,86.37
2019-05-01T02:39:31.186Z,86.75
2019-05-01T02:42:00.949Z,86.54
2019-05-01T02:44:42.621Z,86.41
2019-05-01T02:47:15.301Z,86.30
2019-05-01T02:49:53.851Z,86.44
2019-05-01T02:52:26.776Z,86.61
2019-05-01T02:54:57.690Z,86.83
2019-05-01T02:57:25.007Z,86.87
2019-05-01T02:59:54.349Z,86.79
2019-05-01T03:02:24.347Z,86.63
2019-05-01T03:04:51.514Z,86.58
2019-05-01T03:07:21.249Z,86.38
2019-05-01T03:09:49.482Z,86.16
2019-05-01T03:12:20.400Z,86.26
2019-05-01T03:14:50.715Z,86.14
2019-05-01T03:17:36.306Z,85.88
2019-05-01T03:20:07.319Z,85.93
2019-05-01T03:22:44.719Z,86.20
2019-05-01T03:25:12.403Z,86.30
2019-05-01T03:27:41.189Z,86.57
2019-05-01T03:30:08.530Z,86.68
2019-05-01T03:32:35.839Z,86.98
2019-05-01T03:35:05.255Z,87.22
2019-05-01T03:37:32.681Z,87.22
2019-05-01T03:40:00.163Z,87.41
2019-05-01T03:42:28.512Z,87.39
2019-05-01T03:44:56.122Z,87.31
2019-05-01T03:47:23.519Z,87.50
2019-05-01T03:49:51.296Z,87.37
2019-05-01T03:52:18.579Z,87.19
2019-05-01T03:54:45.927Z,87.31
2019-05-01T03:57:13.431Z,87.21
2019-05-01T03:59:40.720Z,87.58
2019-05-01T04:02:32.831Z,87.46
2019-05-01T04:04:52.150Z,87.35
2019-05-01T04:07:19.685Z,87.25
2019-05-01T04:09:47.249Z,87.18
2019-05-01T04:12:14.560Z,87.20
2019-05-01T04:14:41.961Z,87.54
2019-05-01T04:17:11.187Z,87.56
2019-05-01T04:19:38.774Z,87.53
2019-05-01T04:22:12.744Z,87.24
2019-05-01T04:24:40.684Z,87.05
2019-05-01T04:27:10.313Z,86.94
2019-05-01T04:29:42.238Z,86.92
2019-05-01T04:32:11.305Z,86.97
2019-05-01T04:34:40.399Z,86.64
2019-05-01T04:37:12.481Z,86.43
2019-05-01T04:39:39.707Z,86.30
2019-05-01T04:42:07.674Z,86.13
2019-05-01T04:44:35.166Z,85.65
2019-05-01T04:47:02.619Z,85.27
2019-05-01T04:49:29.928Z,84.94
2019-05-01T04:51:57.293Z,84.70
2019-05-01T04:54:24.506Z,84.94
2019-05-01T04:56:51.779Z,84.52
2019-05-01T04:59:19.072Z,84.39
2019-05-01T05:01:57.291Z,84.44
2019-05-01T05:04:25.460Z,84.61
2019-05-01T05:06:53.727Z,84.65
2019-05-01T05:09:23.323Z,84.48
2019-05-01T05:11:57.855Z,84.52
2019-05-01T05:14:32.819Z,83.89
2019-05-01T05:17:00.444Z,83.10
2019-05-01T05:19:27.632Z,83.08
2019-05-01T05:21:55.375Z,82.96
2019-05-01T05:24:22.789Z,82.69
2019-05-01T05:26:50.169Z,82.57
2019-05-01T05:29:18.362Z,82.02
2019-05-01T05:31:51.056Z,82.61
2019-05-01T05:34:19.655Z,82.33
2019-05-01T05:36:49.886Z,81.79
2019-05-01T05:39:28.783Z,81.46
2019-05-01T05:41:56.494Z,81.50
2019-05-01T05:44:23.874Z,81.54
2019-05-01T05:46:51.063Z,81.74
2019-05-01T05:49:19.031Z,81.55
2019-05-01T05:51:50.109Z,81.26
2019-05-01T05:54:28.976Z,81.04
2019-05-01T05:57:01.588Z,81.32
2019-05-01T05:59:33.463Z,81.78
2019-05-01T06:02:07.779Z,81.16
2019-05-01T06:04:40.836Z,81.34
2019-05-01T06:07:08.790Z,81.15
2019-05-01T06:09:48.488Z,80.12
2019-05-01T06:12:20.844Z,80.05
2019-05-01T06:15:02.426Z,80.00
2019-05-01T06:17:28.724Z,79.73
2019-05-01T06:19:59.125Z,80.11
2019-05-01T06:22:35.277Z,80.04
2019-05-01T06:25:04.996Z,79.73
2019-05-01T06:27:32.897Z,79.10
2019-05-01T06:30:00.543Z,79.51
2019-05-01T06:32:28.835Z,79.89
2019-05-01T06:34:58.423Z,78.63
2019-05-01T06:37:56.031Z,79.01
2019-05-01T06:40:38.331Z,78.69
2019-05-01T06:43:11.662Z,77.82
2019-05-01T06:45:41.180Z,77.11
2019-05-01T06:48:14.339Z,76.66
2019-05-01T06:50:42.714Z,76.94
2019-05-01T06:53:10.004Z,77.04
2019-05-01T06:55:37.992Z,76.87
2019-05-01T06:58:05.486Z,75.17
2019-05-01T07:00:33.531Z,75.06
2019-05-01T07:03:01.295Z,73.51
2019-05-01T07:05:29.245Z,72.03
2019-05-01T07:07:56.638Z,70.99
2019-05-01T07:10:31.631Z,68.73
2019-05-01T07:12:54.887Z,66.47
2019-05-01T07:15:26.657Z,67.27
2019-05-01T07:17:51.151Z,66.83
2019-05-01T07:20:27.307Z,65.26
2019-05-01T07:22:54.647Z,65.05
2019-05-01T07:25:22.102Z,64.21
2019-05-01T07:27:49.134Z,64.16
2019-05-01T07:30:22.090Z,63.03
2019-05-01T07:32:49.091Z,63.36
2019-05-01T07:35:16.142Z,61.56
2019-05-01T07:37:43.547Z,61.63
2019-05-01T07:40:11.082Z,61.42
2019-05-01T07:42:48.308Z,61.49
2019-05-01T07:45:39.022Z,60.79
2019-05-01T07:48:06.877Z,60.78
2019-05-01T07:50:34.995Z,60.09
2019-05-01T07:53:02.216Z,60.10
2019-05-01T07:55:35.438Z,60.69
2019-05-01T07:58:04.931Z,59.01
2019-05-01T08:01:05.068Z,59.18
2019-05-01T08:03:32.255Z,57.44
2019-05-01T08:05:59.242Z,58.08
2019-05-01T08:08:26.382Z,56.79
2019-05-01T08:10:53.385Z,57.99
2019-05-01T08:13:20.306Z,55.80
2019-05-01T08:15:47.344Z,56.65
2019-05-01T08:18:24.141Z,56.60
2019-05-01T08:20:50.390Z,57.30
2019-05-01T08:23:17.854Z,55.84
2019-05-01T08:25:44.747Z,56.78
2019-05-01T08:28:13.931Z,54.56
2019-05-01T08:30:54.112Z,55.00
2019-05-01T08:33:33.067Z,53.81
2019-05-01T08:36:00.131Z,55.06
2019-05-01T08:38:29.753Z,54.84
2019-05-01T08:40:56.775Z,54.89
2019-05-01T08:43:23.947Z,54.10
2019-05-01T08:46:11.790Z,54.03
2019-05-01T08:48:40.300Z,54.92
2019-05-01T08:51:07.494Z,53.55
2019-05-01T08:53:34.445Z,53.16
2019-05-01T08:56:01.582Z,53.10
2019-05-01T08:58:28.451Z,54.39
2019-05-01T09:00:55.352Z,54.15
2019-05-01T09:03:22.674Z,53.52
2019-05-01T09:05:52.380Z,54.43
2019-05-01T09:08:18.696Z,53.75
2019-05-01T09:10:45.931Z,52.71
2019-05-01T09:13:12.875Z,53.37
2019-05-01T09:15:43.748Z,53.20
2019-05-01T09:18:08.617Z,54.66
2019-05-01T09:20:37.176Z,53.04
2019-05-01T09:23:04.184Z,54.02
2019-05-01T09:25:36.918Z,54.51
2019-05-01T09:28:09.336Z,53.30
2019-05-01T09:30:38.347Z,54.58
2019-05-01T09:33:05.571Z,53.62
2019-05-01T09:35:32.718Z,53.52
2019-05-01T09:37:59.741Z,53.30
2019-05-01T09:40:26.778Z,53.71
2019-05-01T09:42:54.593Z,54.31
2019-05-01T09:45:22.900Z,53.73
2019-05-01T09:47:50.075Z,53.34
2019-05-01T09:50:17.266Z,53.81
2019-05-01T09:52:50.119Z,53.09
2019-05-01T09:55:36.526Z,53.20
2019-05-01T09:58:03.727Z,52.46
2019-05-01T10:00:32.383Z,52.04
2019-05-01T10:02:59.667Z,52.23
2019-05-01T10:05:29.216Z,51.77
2019-05-01T10:08:00.094Z,51.11
2019-05-01T10:10:29.342Z,51.96
2019-05-01T10:12:54.398Z,52.56
2019-05-01T10:15:21.442Z,52.09
2019-05-01T10:17:48.614Z,52.80
2019-05-01T10:20:15.466Z,52.54
2019-05-01T10:22:44.863Z,51.89
2019-05-01T10:25:13.447Z,53.23
2019-05-01T10:27:43.219Z,52.15
2019-05-01T10:30:12.767Z,51.82
2019-05-01T10:32:41.923Z,51.17
2019-05-01T10:35:14.215Z,51.82
2019-05-01T10:37:39.951Z,53.20
2019-05-01T10:40:08.100Z,53.42
2019-05-01T10:42:35.118Z,51.23
2019-05-01T10:45:04.229Z,51.98
2019-05-01T10:47:31.035Z,49.29
2019-05-01T10:49:58.097Z,49.97
2019-05-01T10:52:25.263Z,49.70
2019-05-01T10:54:52.245Z,49.63
2019-05-01T10:57:19.041Z,50.27
2019-05-01T10:59:45.875Z,50.78
2019-05-01T11:02:13.911Z,48.39
2019-05-01T11:04:40.786Z,50.02
2019-05-01T11:07:07.935Z,51.56
2019-05-01T11:09:35.018Z,50.50
2019-05-01T11:12:02.059Z,50.26
2019-05-01T11:14:30.410Z,50.49
2019-05-01T11:16:57.439Z,50.80
2019-05-01T11:19:24.427Z,48.71
2019-05-01T11:21:51.610Z,46.72
2019-05-01T11:24:18.676Z,50.34
2019-05-01T11:26:45.622Z,50.42
2019-05-01T11:29:12.722Z,49.15
2019-05-01T11:31:51.374Z,50.83
2019-05-01T11:34:36.980Z,51.19
2019-05-01T11:37:23.115Z,49.46
2019-05-01T11:39:52.114Z,49.00
2019-05-01T11:42:19.331Z,49.53
2019-05-01T11:44:46.408Z,48.60
2019-05-01T11:47:13.450Z,47.51
2019-05-01T11:49:40.334Z,48.69
2019-05-01T11:52:07.343Z,47.95
2019-05-01T11:54:34.365Z,48.87
2019-05-01T11:57:01.412Z,49.58
2019-05-01T11:59:28.341Z,50.52
2019-05-01T12:01:55.735Z,48.36
2019-05-01T12:04:22.736Z,46.99
2019-05-01T12:06:49.878Z,48.81
2019-05-01T12:09:17.483Z,48.21
2019-05-01T12:11:46.523Z,49.11
2019-05-01T12:14:13.535Z,49.72
2019-05-01T12:16:52.662Z,48.18
2019-05-01T12:19:21.775Z,49.41
2019-05-01T12:21:48.933Z,48.73
2019-05-01T12:24:15.930Z,48.97
2019-05-01T12:26:42.891Z,49.07
2019-05-01T12:29:10.242Z,47.77
2019-05-01T12:31:37.202Z,46.32
2019-05-01T12:34:04.139Z,47.13
2019-05-01T12:36:36.382Z,47.53
2019-05-01T12:39:00.024Z,47.98
2019-05-01T12:41:34.721Z,48.45
2019-05-01T12:44:01.883Z,49.27
2019-05-01T12:46:40.816Z,49.24
2019-05-01T12:49:07.935Z,47.91
2019-05-01T12:51:35.435Z,47.74
2019-05-01T12:54:04.692Z,48.83
2019-05-01T12:56:36.831Z,47.36
2019-05-01T12:59:03.864Z,48.33
2019-05-01T13:01:30.817Z,49.17
2019-05-01T13:03:57.835Z,47.89
2019-05-01T13:06:25.781Z,49.74
2019-05-01T13:08:52.789Z,47.53
2019-05-01T13:11:19.855Z,48.17
2019-05-01T13:13:46.651Z,48.64
2019-05-01T13:16:13.725Z,49.48
2019-05-01T13:18:40.642Z,48.43
2019-05-01T13:21:09.948Z,48.91
2019-05-01T13:23:36.911Z,47.95
2019-05-01T13:26:05.886Z,46.60
2019-05-01T13:28:37.290Z,47.34
2019-05-01T13:31:04.635Z,48.62
2019-05-01T13:33:31.639Z,47.84
2019-05-01T13:35:58.887Z,49.31
2019-05-01T13:38:25.779Z,48.70
2019-05-01T13:40:53.231Z,49.04
2019-05-01T13:43:20.318Z,46.84
2019-05-01T13:45:47.261Z,46.71
2019-05-01T13:48:14.356Z,46.41
2019-05-01T13:50:41.319Z,46.85
2019-05-01T13:53:08.293Z,48.25
2019-05-01T13:55:35.287Z,47.33
2019-05-01T13:58:02.451Z,47.22
2019-05-01T14:00:29.461Z,46.77
2019-05-01T14:02:56.734Z,48.79
2019-05-01T14:05:23.929Z,47.12
2019-05-01T14:07:50.816Z,48.43
2019-05-01T14:10:17.945Z,48.95
2019-05-01T14:12:45.219Z,48.00
2019-05-01T14:15:12.656Z,47.22
2019-05-01T14:17:39.623Z,48.41
2019-05-01T14:20:16.443Z,48.17
2019-05-01T14:22:57.160Z,47.36
2019-05-01T14:25:24.072Z,48.55
2019-05-01T14:27:51.083Z,46.46
2019-05-01T14:30:18.353Z,44.40
2019-05-01T14:32:45.398Z,46.41
2019-05-01T14:35:13.811Z,47.82
2019-05-01T14:37:40.674Z,46.94
2019-05-01T14:40:08.373Z,47.37
2019-05-01T14:42:35.407Z,46.89
2019-05-01T14:45:06.406Z,45.72
2019-05-01T14:47:33.415Z,45.19
2019-05-01T14:50:00.318Z,47.12
2019-05-01T14:52:27.317Z,48.11
2019-05-01T14:54:54.373Z,47.84
2019-05-01T14:57:21.496Z,47.97
2019-05-01T14:59:48.542Z,47.18
2019-05-01T15:02:15.594Z,48.17
2019-05-01T15:04:42.552Z,47.94
2019-05-01T15:07:11.237Z,47.09
2019-05-01T15:09:38.346Z,46.96
2019-05-01T15:12:07.982Z,46.54
2019-05-01T15:14:36.891Z,45.47
2019-05-01T15:17:08.579Z,46.62
2019-05-01T15:19:43.542Z,46.32
2019-05-01T15:22:10.546Z,46.71
2019-05-01T15:24:37.548Z,46.41
2019-05-01T15:27:04.680Z,46.58
2019-05-01T15:29:31.697Z,45.92
2019-05-01T15:31:59.008Z,46.35
2019-05-01T15:34:25.816Z,46.23
2019-05-01T15:36:52.731Z,45.81
2019-05-01T15:39:30.693Z,45.56
2019-05-01T15:42:12.733Z,46.50
2019-05-01T15:44:41.581Z,46.80
2019-05-01T15:47:08.780Z,45.38
2019-05-01T15:49:35.730Z,45.49
2019-05-01T15:52:03.335Z,46.62
2019-05-01T15:54:30.382Z,46.24
2019-05-01T15:56:57.275Z,46.06
2019-05-01T15:59:24.303Z,47.16
2019-05-01T16:01:51.477Z,47.12
2019-05-01T16:04:18.594Z,47.00
2019-05-01T16:06:45.704Z,47.12
2019-05-01T16:09:12.978Z,47.08
2019-05-01T16:11:44.875Z,45.76
2019-05-01T16:14:11.996Z,46.22
2019-05-01T16:16:38.888Z,46.06
2019-05-01T16:19:05.731Z,46.99
2019-05-01T16:21:32.725Z,46.59
2019-05-01T16:24:00.050Z,46.27
2019-05-01T16:26:26.992Z,46.55
2019-05-01T16:28:53.978Z,46.72
2019-05-01T16:31:20.999Z,46.49
2019-05-01T16:33:47.933Z,46.00
2019-05-01T16:36:14.959Z,47.02
2019-05-01T16:38:44.086Z,47.03
2019-05-01T16:44:38.207Z,46.01
2019-05-01T16:47:05.320Z,47.36
2019-05-01T16:49:32.488Z,46.49
2019-05-01T16:51:59.551Z,47.67
2019-05-01T16:54:26.549Z,48.17
2019-05-01T16:56:53.486Z,47.80
2019-05-01T16:59:20.271Z,48.28
2019-05-01T17:01:51.809Z,48.25
2019-05-01T17:04:29.401Z,48.67
2019-05-01T17:07:07.220Z,48.69
2019-05-01T17:09:40.219Z,49.12
2019-05-01T17:12:07.468Z,49.05
2019-05-01T17:14:34.576Z,49.75
2019-05-01T17:17:01.600Z,49.50
2019-05-01T17:19:28.529Z,49.27
2019-05-01T17:21:55.452Z,49.49
2019-05-01T17:24:22.400Z,49.41
2019-05-01T17:26:49.384Z,49.63
2019-05-01T17:29:16.379Z,49.95
2019-05-01T17:31:43.419Z,50.06
2019-05-01T17:34:11.183Z,50.27
2019-05-01T17:36:38.158Z,50.24
2019-05-01T17:39:05.328Z,50.37
2019-05-01T17:41:32.328Z,50.31
2019-05-01T17:43:59.494Z,50.37
2019-05-01T17:46:26.411Z,50.28
2019-05-01T17:48:53.380Z,50.50
2019-05-01T17:51:20.386Z,50.66
2019-05-01T17:53:47.328Z,50.74
2019-05-01T17:56:15.224Z,50.63
2019-05-01T17:58:43.067Z,50.63
2019-05-01T18:01:33.141Z,50.74
2019-05-01T18:12:55.082Z,53.04
2019-05-01T18:15:22.317Z,52.80
2019-05-01T18:17:49.427Z,52.88
2019-05-01T18:20:16.369Z,52.98
2019-05-01T18:22:45.217Z,53.01
2019-05-01T18:25:14.163Z,53.56
2019-05-01T18:27:54.450Z,53.17
2019-05-01T18:30:23.787Z,53.35
2019-05-01T18:32:52.529Z,52.91
2019-05-01T18:35:19.815Z,53.54
2019-05-01T18:37:57.483Z,53.77
2019-05-01T18:40:29.220Z,53.21
2019-05-01T18:42:56.142Z,53.17
2019-05-01T18:45:49.685Z,53.92
2019-05-01T18:48:17.536Z,53.20
2019-05-01T18:50:49.314Z,53.15
2019-05-01T18:53:13.980Z,52.83
2019-05-01T18:55:40.873Z,53.96
2019-05-01T18:58:07.931Z,54.40
2019-05-01T19:00:35.039Z,54.50
2019-05-01T19:03:04.213Z,54.72
2019-05-01T19:05:31.471Z,54.14
2019-05-01T19:07:58.390Z,54.28
2019-05-01T19:10:25.509Z,54.23
2019-05-01T19:12:52.435Z,55.08
2019-05-01T19:15:19.697Z,55.44
2019-05-01T19:17:46.863Z,57.05
2019-05-01T19:20:14.095Z,57.11
2019-05-01T19:22:40.927Z,57.63
2019-05-01T19:25:10.883Z,57.72
2019-05-01T19:27:37.439Z,58.12
2019-05-01T19:30:09.886Z,58.58
2019-05-01T19:32:36.258Z,58.85
2019-05-01T19:35:07.090Z,59.33
2019-05-01T19:37:33.933Z,59.05
2019-05-01T19:40:01.593Z,59.51
2019-05-01T19:42:28.805Z,59.53
2019-05-01T19:44:57.428Z,60.83
2019-05-01T19:47:25.176Z,61.60
2019-05-01T19:49:54.560Z,61.73
2019-05-01T19:52:21.314Z,63.35
2019-05-01T19:54:48.325Z,63.38
2019-05-01T19:57:15.758Z,64.51
2019-05-01T19:59:42.857Z,65.22
2019-05-01T20:02:11.602Z,65.40
2019-05-01T20:04:38.607Z,65.96
2019-05-01T20:07:10.693Z,65.40
2019-05-01T20:09:35.427Z,65.88
2019-05-01T20:12:03.491Z,66.80
2019-05-01T20:14:30.662Z,67.46
2019-05-01T20:16:57.882Z,66.91
2019-05-01T20:19:24.963Z,67.38
2019-05-01T20:21:52.105Z,68.11
2019-05-01T20:24:19.429Z,67.89
2019-05-01T20:26:46.982Z,68.05
2019-05-01T20:29:14.109Z,67.93
2019-05-01T20:31:45.870Z,69.31
2019-05-01T20:34:12.075Z,68.89
2019-05-01T20:36:39.782Z,69.08
2019-05-01T20:39:07.297Z,69.34
2019-05-01T20:41:34.400Z,69.62
2019-05-01T20:44:01.744Z,70.65
2019-05-01T20:46:28.624Z,69.77
2019-05-01T20:48:56.160Z,69.22
2019-05-01T20:51:24.938Z,69.96
2019-05-01T20:53:52.469Z,68.95
2019-05-01T20:56:21.488Z,70.30
2019-05-01T20:58:48.648Z,69.97
2019-05-01T21:01:15.914Z,69.74
2019-05-01T21:03:44.721Z,69.01
2019-05-01T21:06:13.658Z,68.45
2019-05-01T21:08:42.659Z,68.38
2019-05-01T21:11:13.061Z,70.15
2019-05-01T21:13:40.020Z,70.42
2019-05-01T21:16:07.075Z,70.37
2019-05-01T21:18:34.097Z,70.90
2019-05-01T21:21:03.318Z,71.32
2019-05-01T21:23:30.875Z,71.94
2019-05-01T21:25:57.678Z,71.53
2019-05-01T21:28:24.770Z,72.61
2019-05-01T21:30:54.388Z,72.86
2019-05-01T21:33:23.634Z,72.86
2019-05-01T21:35:50.199Z,73.11
2019-05-01T21:38:17.199Z,73.20
2019-05-01T21:40:44.103Z,73.29
2019-05-01T21:43:13.418Z,73.63
2019-05-01T21:45:39.977Z,74.00
2019-05-01T21:48:07.246Z,73.68
2019-05-01T21:50:34.253Z,74.17
2019-05-01T21:53:03.309Z,73.57
2019-05-01T21:55:31.790Z,74.25
2019-05-01T21:57:58.835Z,73.28
2019-05-01T22:00:28.576Z,73.28
2019-05-01T22:02:55.620Z,73.14
2019-05-01T22:05:22.773Z,73.63
2019-05-01T22:07:49.796Z,73.10
2019-05-01T22:10:16.814Z,72.99
2019-05-01T22:12:48.954Z,71.58
2019-05-01T22:15:31.169Z,71.20
2019-05-01T22:18:00.179Z,71.95
2019-05-01T22:20:29.003Z,71.95
2019-05-01T22:23:00.726Z,72.99
2019-05-01T22:25:32.326Z,73.79
2019-05-01T22:28:13.927Z,72.82
2019-05-01T22:30:42.270Z,72.82
2019-05-01T22:33:09.948Z,72.27
2019-05-01T22:35:47.572Z,71.89
2019-05-01T22:38:14.714Z,70.74
2019-05-01T22:40:47.486Z,70.74
2019-05-01T22:43:14.782Z,70.72
2019-05-01T22:45:41.724Z,71.90
2019-05-01T22:48:08.526Z,72.00
2019-05-01T22:50:35.445Z,75.19
2019-05-01T22:53:02.586Z,75.19
2019-05-01T22:55:29.425Z,74.09
2019-05-01T22:57:56.611Z,75.61
2019-05-01T23:00:40.338Z,75.31
2019-05-01T23:03:09.190Z,74.30
2019-05-01T23:05:36.600Z,73.33
2019-05-01T23:08:03.878Z,73.33
2019-05-01T23:10:31.307Z,74.93
2019-05-01T23:12:58.505Z,75.65
2019-05-01T23:15:27.832Z,74.88
2019-05-01T23:17:55.023Z,74.18
2019-05-01T23:20:22.926Z,73.78
2019-05-01T23:22:49.798Z,74.60
2019-05-01T23:25:17.022Z,75.52
2019-05-01T23:27:44.130Z,75.50
2019-05-01T23:30:13.383Z,76.11
2019-05-01T23:32:40.576Z,76.42
2019-05-01T23:35:07.902Z,76.19
2019-05-01T23:37:36.087Z,76.97
2019-05-01T23:40:05.512Z,76.97
2019-05-01T23:42:32.479Z,76.95
2019-05-01T23:44:59.386Z,76.86
2019-05-01T23:47:26.294Z,76.99
2019-05-01T23:49:53.842Z,77.10
2019-05-01T23:52:21.163Z,76.78
2019-05-01T23:54:48.087Z,76.52
2019-05-01T23:57:18.890Z,76.52
2019-05-01T23:59:43.959Z,76.66
